Terminal Aerodrome Forecast
Issued by NWS Wilmington, OH

Current Version | Previous Version | Graphics & Text | Print | Product List | Glossary On
Versions: 1 2 3 4 5 6 7 8 9 10 11 12 13 14
592
FTUS41 KILN 260540
TAFCMH
TAF
KCMH 260540Z 2606/2706 27005KT P6SM SCT080
     FM261400 27012G18KT P6SM BKN060
     FM270100 25005KT P6SM BKN060=

USA.gov is the U.S. government's official web portal to all federal, state and local government web resources and services.